Time;durP1;ratioP1;P1;durP2;ratioP2;P2;SDS_P1;SDS_P2;PMS_P1;PMS_P2;Temp;Humidity;BMP_temperature;BMP_pressure;BME280_temperature;BME280_humidity;BME280_pressure;Samples;Min_cycle;Max_cycle;Signal;HPM_P1;HPM_P2
2022/12/03 00:00:12;;;;;;;0.50;0.50;;;15.30;82.60;;;;;;5075272;28;20329;-62
2022/12/03 00:03:01;;;;;;;1.57;1.53;;;15.30;82.40;;;;;;5075917;28;20365;-63
2022/12/03 00:05:49;;;;;;;0.40;0.40;;;15.30;82.20;;;;;;5075301;28;20313;-63
2022/12/03 00:08:38;;;;;;;0.40;0.40;;;15.40;82.20;;;;;;5075243;28;20228;-63
2022/12/03 00:11:26;;;;;;;2.25;2.25;;;15.40;81.50;;;;;;5075302;28;20280;-63
2022/12/03 00:14:14;;;;;;;0.60;0.60;;;15.40;81.90;;;;;;5075068;28;20224;-62
2022/12/03 00:17:02;;;;;;;2.47;2.17;;;15.30;81.20;;;;;;5074634;28;20230;-62
2022/12/03 00:19:50;;;;;;;2.20;2.03;;;15.30;81.00;;;;;;5074878;28;20232;-63
2022/12/03 00:22:39;;;;;;;0.40;0.40;;;15.20;80.50;;;;;;5074560;28;20350;-63
2022/12/03 00:25:28;;;;;;;0.70;0.70;;;15.10;80.70;;;;;;5074791;28;20314;-62
2022/12/03 00:28:16;;;;;;;0.40;0.40;;;15.00;80.30;;;;;;5074461;28;20201;-63
2022/12/03 00:31:04;;;;;;;0.40;0.40;;;15.00;80.80;;;;;;5074702;28;20200;-63
2022/12/03 00:33:52;;;;;;;1.85;1.75;;;14.90;81.00;;;;;;5074555;28;20196;-64
2022/12/03 00:36:40;;;;;;;4.05;3.72;;;14.90;81.30;;;;;;5088545;28;20247;-63
2022/12/03 00:39:28;;;;;;;0.40;0.40;;;14.80;81.10;;;;;;5092070;28;20249;-62
2022/12/03 00:42:18;;;;;;;0.40;0.40;;;14.80;81.40;;;;;;5093836;28;20204;-63
2022/12/03 00:45:07;;;;;;;0.40;0.40;;;14.60;80.20;;;;;;5093833;28;20231;-63
2022/12/03 00:47:55;;;;;;;0.40;0.40;;;14.60;80.60;;;;;;5094280;28;20264;-63
2022/12/03 00:50:43;;;;;;;0.40;0.40;;;14.60;80.70;;;;;;5093704;28;20741;-62
2022/12/03 00:53:31;;;;;;;0.50;0.50;;;14.50;80.70;;;;;;5093536;28;20279;-63
2022/12/03 00:56:19;;;;;;;2.07;1.90;;;14.40;80.70;;;;;;5096315;28;20216;-63
2022/12/03 00:59:09;;;;;;;0.40;0.40;;;14.40;80.60;;;;;;5134528;27;20304;-63
2022/12/03 01:01:57;;;;;;;0.40;0.40;;;14.30;80.60;;;;;;5135827;27;20277;-62
2022/12/03 01:04:45;;;;;;;1.30;1.30;;;14.30;81.00;;;;;;5134875;27;20301;-63
2022/12/03 01:07:33;;;;;;;1.63;1.63;;;14.20;81.00;;;;;;5133551;27;20205;-62
2022/12/03 01:10:22;;;;;;;0.40;0.40;;;14.20;81.20;;;;;;5134957;27;20258;-63
2022/12/03 01:13:10;;;;;;;0.40;0.40;;;14.10;80.90;;;;;;5133612;27;20246;-63
2022/12/03 01:15:59;;;;;;;0.40;0.40;;;14.10;81.00;;;;;;5134279;27;20524;-63
2022/12/03 01:18:47;;;;;;;0.40;0.40;;;14.00;81.40;;;;;;5133056;27;20191;-62
2022/12/03 01:21:36;;;;;;;0.40;0.40;;;14.00;81.20;;;;;;5134947;27;20308;-63
2022/12/03 01:24:24;;;;;;;0.40;0.40;;;14.00;80.90;;;;;;5133571;28;20597;-62
2022/12/03 01:27:12;;;;;;;1.37;1.37;;;14.00;81.40;;;;;;5133580;28;20758;-64
2022/12/03 01:30:00;;;;;;;0.40;0.40;;;14.00;81.60;;;;;;5133323;28;20493;-63
2022/12/03 01:32:49;;;;;;;0.40;0.40;;;13.90;81.00;;;;;;5134388;28;20222;-63
2022/12/03 01:35:37;;;;;;;0.70;0.70;;;13.90;80.80;;;;;;5126722;28;20976;-64
2022/12/03 01:38:25;;;;;;;0.40;0.40;;;13.90;81.20;;;;;;5112603;28;20199;-62
2022/12/03 01:41:13;;;;;;;0.40;0.40;;;13.80;81.60;;;;;;5112089;28;20583;-62
2022/12/03 01:44:02;;;;;;;0.93;0.93;;;13.80;81.20;;;;;;5113085;28;20359;-63
2022/12/03 01:46:51;;;;;;;0.40;0.40;;;13.80;80.90;;;;;;5114191;28;20876;-63
2022/12/03 01:49:43;;;;;;;0.40;0.40;;;13.80;81.00;;;;;;5113741;28;20424;-63
2022/12/03 01:52:35;;;;;;;0.40;0.40;;;13.80;81.10;;;;;;5115412;28;20859;-63
2022/12/03 01:55:25;;;;;;;0.40;0.40;;;13.80;81.50;;;;;;5118192;28;20457;-63
2022/12/03 01:58:14;;;;;;;0.40;0.40;;;13.70;81.60;;;;;;5100826;28;20691;-63
2022/12/03 02:01:09;;;;;;;0.40;0.40;;;13.70;81.30;;;;;;5098105;28;20509;-63
2022/12/03 02:03:57;;;;;;;0.50;0.50;;;13.70;82.30;;;;;;5098054;28;20481;-62
2022/12/03 02:06:47;;;;;;;0.40;0.40;;;13.70;81.70;;;;;;5096730;28;20544;-63
2022/12/03 02:09:35;;;;;;;0.73;0.73;;;13.70;81.50;;;;;;5097342;28;20507;-63
2022/12/03 02:12:28;;;;;;;0.40;0.40;;;13.70;81.60;;;;;;5097794;28;20537;-62
2022/12/03 02:15:16;;;;;;;0.40;0.40;;;13.60;81.80;;;;;;5096815;28;20241;-63
2022/12/03 02:18:05;;;;;;;0.40;0.40;;;13.60;82.00;;;;;;5097579;28;21068;-63
2022/12/03 02:21:02;;;;;;;0.40;0.40;;;13.70;82.20;;;;;;5098036;28;20238;-63
2022/12/03 02:24:02;;;;;;;0.40;0.40;;;13.70;81.60;;;;;;5091124;28;20570;-64
2022/12/03 02:26:51;;;;;;;0.40;0.40;;;13.60;81.30;;;;;;5092266;28;20441;-63
2022/12/03 02:29:39;;;;;;;0.40;0.40;;;13.80;81.70;;;;;;5091160;28;20424;-63
2022/12/03 02:32:28;;;;;;;0.40;0.40;;;13.60;81.90;;;;;;5097288;28;20430;-63
2022/12/03 02:35:18;;;;;;;0.50;0.50;;;13.50;81.20;;;;;;5097545;28;20568;-63
2022/12/03 02:38:11;;;;;;;0.40;0.40;;;13.60;81.30;;;;;;5096838;28;20513;-63
2022/12/03 02:41:04;;;;;;;0.40;0.40;;;13.60;81.30;;;;;;5096666;28;20415;-63
2022/12/03 02:43:52;;;;;;;0.40;0.40;;;13.60;82.40;;;;;;5096966;28;20254;-63
2022/12/03 02:46:41;;;;;;;0.40;0.40;;;13.60;82.20;;;;;;5095786;28;20521;-63
2022/12/03 02:49:29;;;;;;;0.60;0.60;;;13.70;82.30;;;;;;5097059;28;20560;-62
2022/12/03 02:52:17;;;;;;;0.67;0.67;;;13.60;81.30;;;;;;5096975;28;20434;-64
2022/12/03 02:55:07;;;;;;;0.40;0.40;;;13.70;81.40;;;;;;5097345;28;20471;-64
2022/12/03 02:57:55;;;;;;;0.40;0.40;;;13.70;81.10;;;;;;5096580;28;20429;-63
2022/12/03 03:00:46;;;;;;;0.40;0.40;;;13.70;80.90;;;;;;5096076;28;20512;-63
2022/12/03 03:03:36;;;;;;;0.50;0.50;;;13.70;81.20;;;;;;5095379;28;20964;-63
2022/12/03 03:06:24;;;;;;;0.40;0.40;;;13.70;81.20;;;;;;5096940;28;20989;-63
2022/12/03 03:09:12;;;;;;;0.50;0.50;;;13.70;81.00;;;;;;5095012;28;20872;-63
2022/12/03 03:12:01;;;;;;;0.90;0.90;;;13.80;81.20;;;;;;5096475;28;20219;-63
2022/12/03 03:14:49;;;;;;;0.83;0.83;;;13.80;81.20;;;;;;5096369;28;20228;-62
2022/12/03 03:17:41;;;;;;;1.00;1.00;;;13.70;81.50;;;;;;5095739;28;20422;-62
2022/12/03 03:20:29;;;;;;;0.40;0.40;;;13.80;80.90;;;;;;5096846;28;20200;-63
2022/12/03 03:23:20;;;;;;;0.40;0.40;;;13.70;80.50;;;;;;5096728;28;20279;-62
2022/12/03 03:26:09;;;;;;;0.40;0.40;;;13.70;80.50;;;;;;5095250;28;20228;-63
2022/12/03 03:28:59;;;;;;;0.40;0.40;;;13.70;80.90;;;;;;5096366;28;20277;-63
2022/12/03 03:31:47;;;;;;;0.40;0.40;;;13.70;80.70;;;;;;5094737;28;20423;-63
2022/12/03 03:34:37;;;;;;;0.40;0.40;;;13.70;81.90;;;;;;5095822;28;20188;-63
2022/12/03 03:37:26;;;;;;;0.40;0.40;;;13.70;81.40;;;;;;5095174;28;20531;-63
2022/12/03 03:40:14;;;;;;;0.40;0.40;;;13.70;81.30;;;;;;5096239;28;20231;-63
2022/12/03 03:43:02;;;;;;;0.40;0.40;;;13.70;81.30;;;;;;5096037;28;20514;-63
2022/12/03 03:45:52;;;;;;;0.40;0.40;;;13.70;81.70;;;;;;5094011;28;20223;-63
2022/12/03 03:48:41;;;;;;;3.20;3.10;;;13.70;81.70;;;;;;5095533;28;20726;-63
2022/12/03 03:51:31;;;;;;;0.40;0.40;;;13.60;81.20;;;;;;5096340;28;20441;-63
2022/12/03 03:54:19;;;;;;;0.50;0.50;;;13.60;81.10;;;;;;5095964;28;20467;-63
2022/12/03 03:57:07;;;;;;;0.40;0.40;;;13.60;81.40;;;;;;5110257;27;20713;-63
2022/12/03 03:59:58;;;;;;;0.40;0.40;;;13.60;81.10;;;;;;5134134;27;20503;-64
2022/12/03 04:02:46;;;;;;;0.40;0.40;;;13.60;81.70;;;;;;5135958;27;20273;-64
2022/12/03 04:05:34;;;;;;;0.40;0.40;;;13.60;82.90;;;;;;5134952;27;20218;-62
2022/12/03 04:08:24;;;;;;;0.40;0.40;;;13.70;82.90;;;;;;5134584;27;20726;-63
2022/12/03 04:14:17;;;;;;;0.40;0.40;;;13.90;82.70;;;;;;5135544;27;20459;-63
2022/12/03 04:17:05;;;;;;;0.40;0.40;;;13.90;81.40;;;;;;5134527;27;20297;-62
2022/12/03 04:19:53;;;;;;;0.50;0.50;;;13.90;81.30;;;;;;5135654;27;20630;-63
2022/12/03 04:22:40;;;;;;;0.40;0.40;;;14.00;81.60;;;;;;5135028;27;20852;-64
2022/12/03 04:28:50;;;;;;;0.40;0.40;;;14.00;80.90;;;;;;5134232;27;20678;-63
2022/12/03 04:37:50;;;;;;;1.27;1.27;;;14.00;80.00;;;;;;5139916;22;20279;-62
2022/12/03 04:46:47;;;;;;;0.50;0.50;;;14.00;80.20;;;;;;5112733;28;20222;-62
2022/12/03 04:49:37;;;;;;;0.40;0.40;;;14.00;79.90;;;;;;5112458;28;20202;-62
2022/12/03 04:52:25;;;;;;;0.40;0.40;;;13.90;79.90;;;;;;5111488;28;20195;-62
2022/12/03 04:55:14;;;;;;;0.50;0.50;;;13.90;79.90;;;;;;5112684;28;20508;-62
2022/12/03 04:58:03;;;;;;;0.80;0.80;;;13.90;80.00;;;;;;5110799;28;20219;-62
2022/12/03 05:00:51;;;;;;;0.40;0.40;;;13.80;79.70;;;;;;5111663;28;20195;-63
2022/12/03 05:03:39;;;;;;;0.40;0.40;;;13.80;79.90;;;;;;5111669;28;20199;-62
2022/12/03 05:06:27;;;;;;;0.40;0.40;;;13.80;80.40;;;;;;5111756;28;20322;-62
2022/12/03 05:09:16;;;;;;;0.53;0.53;;;13.80;80.70;;;;;;5111777;28;20270;-62
2022/12/03 05:12:04;;;;;;;0.50;0.50;;;13.80;80.20;;;;;;5112105;28;20210;-62
2022/12/03 05:14:54;;;;;;;0.40;0.40;;;13.70;80.30;;;;;;5112454;28;20204;-62
2022/12/03 05:17:43;;;;;;;0.50;0.50;;;13.70;80.80;;;;;;5112329;28;20219;-62
2022/12/03 05:20:43;;;;;;;2.27;2.17;;;13.70;80.80;;;;;;5111785;28;20284;-62
2022/12/03 05:23:40;;;;;;;0.60;0.60;;;13.70;80.80;;;;;;5112253;28;20304;-63
2022/12/03 05:26:28;;;;;;;0.40;0.40;;;13.60;80.00;;;;;;5112210;28;20308;-62
2022/12/03 05:29:16;;;;;;;0.40;0.40;;;13.60;80.20;;;;;;5111712;28;20320;-62
2022/12/03 05:32:06;;;;;;;0.40;0.40;;;13.60;80.10;;;;;;5111794;28;20800;-62
2022/12/03 05:34:54;;;;;;;0.40;0.40;;;13.70;80.60;;;;;;5111612;28;20508;-62
2022/12/03 05:37:42;;;;;;;0.40;0.40;;;13.70;80.50;;;;;;5111274;28;20549;-62
2022/12/03 05:40:30;;;;;;;0.40;0.40;;;13.70;80.60;;;;;;5111118;28;20683;-62
2022/12/03 05:43:17;;;;;;;0.40;0.40;;;13.70;79.90;;;;;;5112038;28;20414;-62
2022/12/03 05:46:06;;;;;;;0.40;0.40;;;13.70;80.30;;;;;;5110656;28;20487;-62
2022/12/03 05:48:55;;;;;;;1.13;1.07;;;13.70;80.10;;;;;;5111437;28;20421;-61
2022/12/03 05:51:43;;;;;;;0.40;0.40;;;13.70;80.10;;;;;;5111257;28;20428;-62
2022/12/03 05:54:31;;;;;;;0.40;0.40;;;13.60;80.60;;;;;;5111770;28;20425;-62
2022/12/03 05:57:19;;;;;;;0.40;0.40;;;13.70;80.00;;;;;;5102035;28;20443;-62
2022/12/03 06:00:11;;;;;;;0.40;0.40;;;13.70;80.40;;;;;;5090376;28;20211;-62
2022/12/03 06:02:59;;;;;;;0.40;0.40;;;13.70;80.40;;;;;;5090763;28;20415;-62
2022/12/03 06:05:49;;;;;;;0.50;0.50;;;13.70;80.40;;;;;;5091966;28;20454;-62
2022/12/03 06:08:37;;;;;;;0.40;0.40;;;13.70;79.80;;;;;;5091979;28;20204;-62
2022/12/03 06:11:25;;;;;;;0.80;0.80;;;13.70;80.00;;;;;;5091832;28;20196;-62
2022/12/03 06:14:13;;;;;;;0.40;0.40;;;13.70;80.50;;;;;;5090768;28;20491;-62
2022/12/03 06:17:03;;;;;;;0.40;0.40;;;13.70;80.10;;;;;;5091194;28;20555;-62
2022/12/03 06:19:51;;;;;;;0.40;0.40;;;13.70;80.40;;;;;;5091959;28;20517;-62
2022/12/03 06:22:41;;;;;;;1.60;1.50;;;13.70;80.40;;;;;;5091261;28;20279;-62
2022/12/03 06:25:29;;;;;;;0.50;0.50;;;13.60;80.70;;;;;;5091201;28;20598;-62
2022/12/03 06:28:17;;;;;;;0.80;0.80;;;13.60;80.70;;;;;;5091537;28;20521;-62
2022/12/03 06:31:05;;;;;;;9.73;2.53;;;13.30;80.70;;;;;;5091127;28;20513;-62
2022/12/03 06:33:53;;;;;;;0.40;0.40;;;13.60;80.40;;;;;;5092044;28;20204;-62
2022/12/03 06:36:41;;;;;;;0.90;0.90;;;13.60;80.20;;;;;;5091875;28;20303;-62
2022/12/03 06:39:31;;;;;;;0.40;0.40;;;13.60;80.40;;;;;;5092269;28;20572;-62
2022/12/03 06:42:19;;;;;;;0.40;0.40;;;13.60;80.80;;;;;;5098093;28;20487;-62
2022/12/03 06:45:08;;;;;;;0.40;0.40;;;13.50;80.50;;;;;;5095600;28;20580;-62
2022/12/03 06:47:56;;;;;;;0.57;0.57;;;13.50;81.60;;;;;;5094206;28;20449;-62
2022/12/03 06:50:44;;;;;;;0.40;0.40;;;13.60;82.70;;;;;;5094942;28;20275;-62
2022/12/03 06:53:32;;;;;;;0.40;0.40;;;13.80;82.60;;;;;;5094684;28;20249;-62
2022/12/03 06:56:21;;;;;;;0.40;0.40;;;14.00;82.40;;;;;;5096123;28;20442;-62
2022/12/03 06:59:09;;;;;;;0.93;0.93;;;14.20;82.10;;;;;;5114062;28;20504;-63
2022/12/03 07:01:57;;;;;;;0.40;0.40;;;14.30;81.80;;;;;;5114604;28;20258;-62
2022/12/03 07:04:46;;;;;;;0.40;0.40;;;14.40;81.60;;;;;;5114042;28;20206;-62
2022/12/03 07:07:34;;;;;;;0.40;0.40;;;14.50;81.30;;;;;;5113896;28;20223;-62
2022/12/03 07:10:22;;;;;;;0.40;0.40;;;14.50;80.90;;;;;;5114366;28;20203;-62
2022/12/03 07:13:12;;;;;;;0.57;0.57;;;14.60;81.00;;;;;;5112869;28;20203;-62
2022/12/03 07:16:00;;;;;;;0.40;0.40;;;14.60;80.20;;;;;;5113944;28;20202;-62
2022/12/03 07:18:48;;;;;;;2.67;2.53;;;14.60;80.60;;;;;;5114191;28;20487;-62
2022/12/03 07:21:36;;;;;;;0.40;0.40;;;14.60;80.00;;;;;;5114153;28;20699;-62
2022/12/03 07:24:24;;;;;;;0.40;0.40;;;14.50;79.60;;;;;;5114240;28;20309;-62
2022/12/03 07:27:12;;;;;;;0.40;0.40;;;14.50;79.80;;;;;;5113618;28;20602;-62
2022/12/03 07:30:01;;;;;;;0.40;0.40;;;14.50;79.40;;;;;;5113152;28;20301;-62
2022/12/03 07:32:50;;;;;;;1.73;1.63;;;14.50;79.70;;;;;;5113423;28;20278;-63
2022/12/03 07:35:38;;;;;;;0.40;0.40;;;14.50;79.10;;;;;;5113395;28;20195;-62
2022/12/03 07:38:26;;;;;;;0.40;0.40;;;14.40;79.60;;;;;;5113339;28;20199;-62
2022/12/03 07:41:14;;;;;;;0.40;0.40;;;14.40;79.90;;;;;;5112368;28;20205;-62
2022/12/03 07:44:02;;;;;;;0.40;0.40;;;14.40;79.70;;;;;;5113304;28;20282;-63
2022/12/03 07:46:57;;;;;;;0.40;0.40;;;14.30;79.90;;;;;;5112988;28;20219;-63
2022/12/03 07:49:45;;;;;;;1.17;1.17;;;14.30;79.40;;;;;;5112883;28;20241;-62
2022/12/03 07:52:33;;;;;;;0.93;0.93;;;14.20;79.10;;;;;;5113596;28;20195;-62
2022/12/03 07:55:23;;;;;;;0.40;0.40;;;14.20;79.60;;;;;;5113017;28;20204;-62
2022/12/03 07:58:11;;;;;;;0.40;0.40;;;14.10;79.70;;;;;;5096438;28;20204;-62
2022/12/03 08:00:59;;;;;;;0.40;0.40;;;12.60;78.60;;;;;;5093254;28;20204;-62
2022/12/03 08:03:49;;;;;;;0.40;0.40;;;14.00;80.00;;;;;;5093067;28;20249;-62
2022/12/03 08:06:37;;;;;;;0.40;0.40;;;14.00;80.10;;;;;;5092978;28;20293;-63
2022/12/03 08:09:25;;;;;;;2.47;2.37;;;14.00;79.90;;;;;;5093277;28;20474;-62
2022/12/03 08:12:16;;;;;;;0.40;0.40;;;14.00;80.40;;;;;;5093428;28;20211;-62
2022/12/03 08:15:09;;;;;;;0.40;0.40;;;13.90;79.70;;;;;;5093376;28;20283;-62
2022/12/03 08:17:59;;;;;;;0.40;0.40;;;13.90;79.80;;;;;;5092741;28;20220;-62
2022/12/03 08:20:50;;;;;;;0.40;0.40;;;13.90;79.90;;;;;;5092737;28;20468;-63
2022/12/03 08:23:38;;;;;;;0.40;0.40;;;13.80;80.00;;;;;;5092868;28;20422;-62
2022/12/03 08:26:28;;;;;;;0.40;0.40;;;13.80;79.90;;;;;;5091887;28;20628;-62
2022/12/03 08:29:18;;;;;;;0.50;0.50;;;13.80;80.50;;;;;;5093106;28;20291;-62
2022/12/03 08:32:10;;;;;;;0.40;0.40;;;13.80;80.20;;;;;;5093142;28;20425;-62
2022/12/03 08:35:00;;;;;;;0.50;0.50;;;13.80;80.00;;;;;;5092597;28;20215;-62
2022/12/03 08:37:55;;;;;;;0.40;0.40;;;13.70;79.80;;;;;;5093193;28;20281;-62
2022/12/03 08:40:46;;;;;;;1.17;1.17;;;13.70;80.00;;;;;;5092567;28;20522;-63
2022/12/03 08:43:40;;;;;;;0.40;0.40;;;13.80;80.90;;;;;;5092323;28;20202;-62
2022/12/03 08:46:29;;;;;;;0.70;0.70;;;13.80;80.70;;;;;;5092736;28;20460;-62
2022/12/03 08:49:19;;;;;;;0.40;0.40;;;13.80;80.60;;;;;;5091908;28;20476;-62
2022/12/03 08:52:14;;;;;;;1.33;1.23;;;13.80;80.80;;;;;;5092865;28;20620;-62
2022/12/03 08:55:32;;;;;;;0.40;0.40;;;13.80;81.10;;;;;;5092961;28;20196;-62
2022/12/03 08:58:24;;;;;;;0.40;0.40;;;13.80;81.00;;;;;;5111020;28;20435;-63
2022/12/03 09:01:39;;;;;;;0.40;0.40;;;13.90;80.80;;;;;;5111266;28;20445;-63
2022/12/03 09:04:30;;;;;;;0.50;0.50;;;13.80;80.70;;;;;;5111542;28;20195;-62
2022/12/03 09:07:19;;;;;;;0.40;0.40;;;13.80;80.90;;;;;;5111439;28;20242;-63
2022/12/03 09:10:08;;;;;;;0.40;0.40;;;13.80;79.90;;;;;;5111899;28;20418;-62
2022/12/03 09:12:56;;;;;;;0.40;0.40;;;13.80;79.70;;;;;;5112930;28;20865;-61
2022/12/03 09:15:45;;;;;;;0.40;0.40;;;13.80;79.20;;;;;;5111898;28;20203;-61
2022/12/03 09:18:33;;;;;;;0.40;0.40;;;13.80;79.10;;;;;;5112691;28;20202;-62
2022/12/03 09:21:22;;;;;;;0.40;0.40;;;13.80;79.70;;;;;;5112191;28;20417;-62
2022/12/03 09:24:10;;;;;;;0.57;0.57;;;13.80;79.50;;;;;;5112301;28;20249;-62
2022/12/03 09:26:58;;;;;;;0.40;0.40;;;13.80;79.90;;;;;;5111398;28;20250;-62
2022/12/03 09:29:46;;;;;;;0.90;0.90;;;13.80;79.80;;;;;;5111194;28;20332;-62
2022/12/03 09:32:35;;;;;;;0.50;0.50;;;13.70;79.40;;;;;;5112050;28;20256;-62
2022/12/03 09:35:24;;;;;;;0.40;0.40;;;13.70;79.50;;;;;;5112791;28;20977;-63
2022/12/03 09:38:12;;;;;;;13.43;5.00;;;13.70;80.00;;;;;;5112500;28;20488;-62
2022/12/03 09:41:01;;;;;;;0.63;0.63;;;13.70;80.00;;;;;;5112222;28;20227;-62
2022/12/03 09:43:49;;;;;;;0.40;0.40;;;13.70;79.40;;;;;;5111645;28;20280;-62
2022/12/03 09:46:52;;;;;;;0.40;0.40;;;13.80;79.70;;;;;;5111165;28;20706;-63
2022/12/03 09:49:42;;;;;;;1.37;1.37;;;13.70;79.50;;;;;;5111180;28;20195;-62
2022/12/03 09:52:32;;;;;;;1.90;1.80;;;13.70;79.40;;;;;;5111808;28;20503;-62
2022/12/03 09:55:23;;;;;;;0.50;0.50;;;13.70;79.40;;;;;;5112239;28;20341;-62
2022/12/03 09:58:13;;;;;;;0.47;0.47;;;13.70;80.00;;;;;;5096268;28;20427;-62
2022/12/03 10:01:02;;;;;;;0.40;0.40;;;13.70;79.40;;;;;;5092739;28;20513;-62
2022/12/03 10:03:51;;;;;;;0.40;0.40;;;13.70;79.80;;;;;;5093425;28;20227;-62
2022/12/03 10:06:40;;;;;;;0.40;0.40;;;13.70;79.80;;;;;;5094005;28;20261;-62
2022/12/03 10:09:33;;;;;;;0.40;0.40;;;13.70;80.40;;;;;;5093696;28;20557;-62
2022/12/03 10:12:23;;;;;;;0.50;0.50;;;13.80;80.40;;;;;;5094208;28;20199;-62
2022/12/03 10:15:13;;;;;;;0.40;0.40;;;13.80;79.80;;;;;;5095814;28;20208;-62
2022/12/03 10:18:15;;;;;;;0.40;0.40;;;13.70;80.00;;;;;;5098032;28;20245;-62
2022/12/03 10:21:03;;;;;;;0.40;0.40;;;13.70;79.90;;;;;;5097626;28;20978;-62
2022/12/03 10:24:21;;;;;;;0.40;0.40;;;13.70;79.80;;;;;;5097863;28;20287;-62
2022/12/03 10:27:22;;;;;;;0.40;0.40;;;13.70;79.70;;;;;;5096878;28;20302;-62
2022/12/03 10:30:18;;;;;;;0.40;0.40;;;13.70;80.30;;;;;;5096726;28;20283;-62
2022/12/03 10:33:13;;;;;;;0.50;0.50;;;13.70;80.00;;;;;;5096633;28;20579;-62
2022/12/03 10:36:19;;;;;;;0.40;0.40;;;13.70;80.30;;;;;;5095540;28;20227;-63
2022/12/03 10:39:11;;;;;;;0.50;0.50;;;13.60;80.10;;;;;;5095893;28;20221;-63
2022/12/03 10:42:14;;;;;;;0.70;0.70;;;13.60;80.20;;;;;;5095348;28;20246;-63
2022/12/03 10:45:18;;;;;;;0.40;0.40;;;13.60;80.30;;;;;;5095253;28;20281;-63
2022/12/03 10:48:11;;;;;;;0.40;0.40;;;13.60;80.40;;;;;;5094587;28;20465;-63
2022/12/03 10:51:03;;;;;;;0.40;0.40;;;13.60;80.30;;;;;;5093554;28;20471;-63
2022/12/03 10:53:53;;;;;;;0.40;0.40;;;13.60;80.00;;;;;;5094063;28;20487;-63
2022/12/03 10:56:41;;;;;;;0.40;0.40;;;13.60;80.20;;;;;;5098625;28;20532;-63
2022/12/03 10:59:34;;;;;;;0.40;0.40;;;13.60;80.40;;;;;;5113307;28;20318;-63
2022/12/03 11:02:24;;;;;;;1.33;1.33;;;13.60;79.80;;;;;;5114921;28;20433;-63
2022/12/03 11:05:15;;;;;;;0.50;0.50;;;13.60;80.80;;;;;;5114045;28;20231;-63
2022/12/03 11:08:04;;;;;;;0.40;0.40;;;13.60;80.80;;;;;;5113104;28;20227;-63
2022/12/03 11:10:57;;;;;;;0.40;0.40;;;13.60;80.70;;;;;;5113886;28;20273;-63
2022/12/03 11:13:52;;;;;;;0.40;0.40;;;13.60;81.00;;;;;;5114412;28;20276;-63
2022/12/03 11:17:08;;;;;;;0.40;0.40;;;13.70;80.70;;;;;;5113148;28;20412;-63
2022/12/03 11:19:58;;;;;;;0.40;0.40;;;13.70;81.00;;;;;;5113051;28;20409;-63
2022/12/03 11:22:47;;;;;;;0.40;0.40;;;13.80;80.10;;;;;;5113965;28;20278;-63
2022/12/03 11:25:56;;;;;;;0.40;0.40;;;13.80;80.40;;;;;;5113771;28;20508;-63
2022/12/03 11:28:54;;;;;;;0.40;0.40;;;13.80;80.50;;;;;;5114508;28;20453;-63
2022/12/03 11:31:45;;;;;;;0.40;0.40;;;13.80;79.50;;;;;;5114178;28;20510;-63
2022/12/03 11:34:44;;;;;;;0.40;0.40;;;13.90;80.40;;;;;;5113968;28;20471;-63
2022/12/03 11:37:32;;;;;;;0.40;0.40;;;13.90;80.30;;;;;;5113812;28;20576;-63
2022/12/03 11:40:29;;;;;;;0.53;0.53;;;13.90;79.90;;;;;;5113610;28;20291;-63
2022/12/03 11:43:58;;;;;;;4.10;1.63;;;13.90;80.10;;;;;;5114014;28;20210;-63
2022/12/03 11:46:47;;;;;;;0.50;0.50;;;13.90;80.00;;;;;;5113718;28;20906;-63
2022/12/03 11:49:46;;;;;;;0.40;0.40;;;13.90;79.90;;;;;;5113153;28;20518;-63
2022/12/03 11:52:42;;;;;;;0.60;0.60;;;13.90;79.70;;;;;;5114216;28;20204;-63
2022/12/03 11:55:33;;;;;;;0.50;0.50;;;13.90;79.90;;;;;;5114021;28;20219;-63
2022/12/03 11:58:25;;;;;;;0.40;0.40;;;13.80;79.60;;;;;;5094786;28;20192;-63
2022/12/03 12:01:14;;;;;;;0.60;0.60;;;13.80;80.00;;;;;;5092941;28;20292;-63
2022/12/03 12:04:03;;;;;;;2.73;2.63;;;13.80;79.60;;;;;;5093666;28;20207;-63
2022/12/03 12:06:52;;;;;;;0.40;0.40;;;13.80;80.10;;;;;;5093124;28;20220;-63
2022/12/03 12:09:54;;;;;;;1.17;1.17;;;13.80;80.40;;;;;;5093290;28;20458;-63
2022/12/03 12:12:44;;;;;;;0.40;0.40;;;13.80;80.20;;;;;;5092982;28;20432;-63
2022/12/03 12:15:43;;;;;;;1.47;1.37;;;13.80;80.30;;;;;;5093593;28;20419;-63
2022/12/03 12:18:40;;;;;;;0.40;0.40;;;13.80;80.40;;;;;;5093664;28;20720;-63
2022/12/03 12:21:43;;;;;;;0.40;0.40;;;13.70;80.30;;;;;;5093214;28;20196;-63
2022/12/03 12:24:37;;;;;;;0.40;0.40;;;13.70;80.00;;;;;;5094406;28;20195;-63
2022/12/03 12:27:31;;;;;;;1.23;0.80;;;13.70;80.00;;;;;;5092614;28;20611;-63
2022/12/03 12:30:22;;;;;;;0.40;0.40;;;13.70;80.40;;;;;;5092334;28;20249;-63
2022/12/03 12:33:21;;;;;;;0.50;0.50;;;13.70;80.50;;;;;;5093147;28;20192;-63
2022/12/03 12:36:10;;;;;;;0.40;0.40;;;13.70;80.20;;;;;;5092899;28;20544;-63
2022/12/03 12:38:59;;;;;;;0.73;0.73;;;13.70;81.10;;;;;;5091890;28;20499;-63
2022/12/03 12:41:51;;;;;;;0.80;0.80;;;13.80;81.20;;;;;;5092434;28;20329;-63
2022/12/03 12:44:39;;;;;;;0.40;0.40;;;13.80;81.30;;;;;;5093187;28;20627;-63
2022/12/03 12:47:29;;;;;;;0.40;0.40;;;13.90;81.40;;;;;;5091533;28;20257;-62
2022/12/03 12:50:19;;;;;;;0.40;0.40;;;13.90;80.20;;;;;;5092447;28;20488;-63
2022/12/03 12:53:12;;;;;;;0.50;0.50;;;13.90;80.20;;;;;;5092989;28;20418;-63
2022/12/03 12:56:07;;;;;;;0.40;0.40;;;14.00;80.00;;;;;;5092062;28;20950;-63
2022/12/03 12:58:58;;;;;;;0.40;0.40;;;14.00;80.00;;;;;;5112984;28;20490;-63
2022/12/03 13:01:48;;;;;;;0.40;0.40;;;14.00;80.00;;;;;;5112261;28;20716;-65
2022/12/03 13:04:39;;;;;;;0.40;0.40;;;14.00;80.00;;;;;;5111853;28;20421;-63
2022/12/03 13:07:27;;;;;;;3.13;2.93;;;14.00;79.90;;;;;;5112002;28;20332;-63
2022/12/03 13:10:35;;;;;;;0.40;0.40;;;14.00;79.80;;;;;;5110874;28;20250;-63
2022/12/03 13:13:30;;;;;;;0.40;0.40;;;14.00;79.60;;;;;;5111891;28;20211;-63
2022/12/03 13:16:26;;;;;;;0.67;0.67;;;14.00;79.50;;;;;;5111651;28;20641;-63
2022/12/03 13:19:22;;;;;;;0.50;0.50;;;13.90;79.20;;;;;;5111998;28;20195;-63
2022/12/03 13:22:14;;;;;;;1.10;1.10;;;13.90;79.60;;;;;;5112287;28;20615;-63
2022/12/03 13:25:32;;;;;;;0.50;0.50;;;13.90;79.80;;;;;;5111878;28;20199;-63
2022/12/03 13:28:41;;;;;;;0.40;0.40;;;13.80;79.50;;;;;;5112311;28;20591;-63
2022/12/03 13:31:35;;;;;;;0.40;0.40;;;13.80;79.70;;;;;;5111526;28;20505;-63
2022/12/03 13:34:32;;;;;;;0.40;0.40;;;13.80;80.00;;;;;;5111674;28;20234;-63
2022/12/03 13:37:23;;;;;;;0.50;0.50;;;13.80;80.20;;;;;;5110880;28;20453;-63
2022/12/03 13:40:22;;;;;;;0.40;0.40;;;13.80;80.10;;;;;;5112224;28;20253;-63
2022/12/03 13:43:14;;;;;;;0.40;0.40;;;13.80;80.00;;;;;;5111091;28;20710;-63
2022/12/03 13:46:02;;;;;;;0.40;0.40;;;13.50;79.90;;;;;;5112234;28;20251;-63
2022/12/03 13:48:52;;;;;;;0.40;0.40;;;13.80;80.50;;;;;;5112558;28;20199;-63
2022/12/03 13:51:48;;;;;;;0.40;0.40;;;13.80;80.20;;;;;;5115599;28;20195;-63
2022/12/03 13:54:38;;;;;;;0.40;0.40;;;13.70;80.30;;;;;;5114778;28;20663;-63
2022/12/03 13:57:26;;;;;;;0.40;0.40;;;13.70;80.30;;;;;;5104248;28;20223;-63
2022/12/03 14:00:15;;;;;;;0.70;0.70;;;13.70;80.50;;;;;;5095593;28;20242;-63
2022/12/03 14:03:03;;;;;;;0.90;0.90;;;13.70;80.60;;;;;;5096292;28;20242;-62
2022/12/03 14:05:53;;;;;;;1.03;1.03;;;13.70;81.70;;;;;;5096132;28;20260;-64
2022/12/03 14:08:41;;;;;;;0.40;0.40;;;13.80;81.90;;;;;;5095875;28;20196;-64
2022/12/03 14:14:35;;;;;;;0.40;0.40;;;14.10;81.10;;;;;;5095770;28;20418;-64
2022/12/03 14:17:23;;;;;;;0.70;0.70;;;14.20;81.30;;;;;;5094597;28;20249;-62
2022/12/03 14:20:12;;;;;;;0.40;0.40;;;14.30;81.20;;;;;;5095401;28;20509;-62
2022/12/03 14:23:01;;;;;;;0.50;0.50;;;14.30;80.70;;;;;;5095542;28;20297;-65
2022/12/03 14:25:50;;;;;;;0.40;0.40;;;14.30;80.40;;;;;;5095955;28;20223;-63
2022/12/03 14:28:38;;;;;;;0.60;0.60;;;14.30;80.80;;;;;;5095717;28;20282;-63
2022/12/03 14:31:26;;;;;;;0.40;0.40;;;14.30;80.20;;;;;;5095405;28;20200;-63
2022/12/03 14:34:14;;;;;;;0.40;0.40;;;14.30;80.20;;;;;;5095647;28;20283;-63
2022/12/03 14:37:02;;;;;;;0.40;0.40;;;14.30;80.00;;;;;;5094733;28;20272;-64
2022/12/03 14:39:52;;;;;;;0.40;0.40;;;14.30;79.90;;;;;;5094772;28;20196;-63
2022/12/03 14:42:40;;;;;;;0.40;0.40;;;14.30;79.50;;;;;;5094721;28;20196;-63
2022/12/03 14:45:29;;;;;;;0.40;0.40;;;14.20;79.30;;;;;;5094527;28;20278;-63
2022/12/03 14:48:17;;;;;;;0.40;0.40;;;14.20;79.20;;;;;;5094685;28;20199;-63
2022/12/03 14:51:06;;;;;;;0.40;0.40;;;14.20;79.00;;;;;;5094362;28;20718;-63
2022/12/03 14:53:54;;;;;;;0.47;0.47;;;14.20;79.50;;;;;;5095103;28;20981;-63
2022/12/03 14:56:43;;;;;;;0.50;0.50;;;;;;;;;;5099751;28;20532;-63
2022/12/03 14:59:32;;;;;;;0.50;0.50;;;14.10;78.60;;;;;;5114717;28;20417;-63
2022/12/03 15:02:20;;;;;;;0.40;0.40;;;14.10;79.20;;;;;;5113205;28;20218;-63
2022/12/03 15:05:08;;;;;;;0.50;0.50;;;14.00;79.50;;;;;;5114011;28;20198;-63
2022/12/03 15:07:56;;;;;;;0.40;0.40;;;14.00;79.40;;;;;;5115184;28;20531;-63
2022/12/03 15:10:45;;;;;;;1.63;1.63;;;14.00;79.50;;;;;;5113244;28;20226;-62